Time;durP1;ratioP1;P1;durP2;ratioP2;P2;SDS_P1;SDS_P2;PMS_P1;PMS_P2;Temp;Humidity;BMP_temperature;BMP_pressure;BME280_temperature;BME280_humidity;BME280_pressure;Samples;Min_cycle;Max_cycle;Signal;HPM_P1;HPM_P2
2023/08/31 00:01:11;;;;;;;8.03;5.60;;;12.30;64.50;;;;;;5125017;27;46645;-81
2023/08/31 00:03:37;;;;;;;7.87;5.50;;;12.30;64.50;;;;;;5108899;27;46807;-81
2023/08/31 00:06:07;;;;;;;9.27;4.80;;;12.30;64.40;;;;;;5126535;27;47017;-81
2023/08/31 00:08:34;;;;;;;7.90;5.20;;;12.20;63.70;;;;;;5127321;27;47540;-81
2023/08/31 00:11:00;;;;;;;7.50;5.10;;;12.20;64.70;;;;;;5110054;27;46623;-80
2023/08/31 00:13:27;;;;;;;7.10;5.27;;;12.20;64.70;;;;;;5122960;27;46490;-81
2023/08/31 00:15:57;;;;;;;7.77;5.13;;;12.20;64.90;;;;;;5131801;27;46646;-80
2023/08/31 00:18:24;;;;;;;8.23;5.07;;;12.20;65.00;;;;;;5125524;27;47594;-81
2023/08/31 00:20:49;;;;;;;6.80;5.00;;;11.50;63.40;;;;;;5110476;27;46738;-82
2023/08/31 00:23:18;;;;;;;7.03;4.57;;;12.10;65.10;;;;;;5127864;27;46464;-80
2023/08/31 00:25:44;;;;;;;6.50;5.10;;;12.10;65.10;;;;;;5106700;27;45963;-80
2023/08/31 00:28:10;;;;;;;8.50;5.47;;;12.10;65.10;;;;;;5125579;27;46445;-81
2023/08/31 00:30:35;;;;;;;8.73;4.97;;;12.20;63.80;;;;;;5107336;27;46494;-80
2023/08/31 00:33:01;;;;;;;7.27;5.03;;;12.30;64.30;;;;;;5127048;27;46089;-81
2023/08/31 00:35:27;;;;;;;6.90;4.97;;;12.50;63.60;;;;;;5129921;27;46718;-81
2023/08/31 00:38:00;;;;;;;8.00;4.97;;;12.60;62.70;;;;;;5126969;27;47333;-82
2023/08/31 00:40:26;;;;;;;7.67;6.17;;;12.80;60.90;;;;;;5125362;27;47664;-80
2023/08/31 00:42:51;;;;;;;9.70;5.77;;;12.90;61.50;;;;;;5126941;27;46576;-79
2023/08/31 00:45:18;;;;;;;7.23;5.77;;;13.00;61.10;;;;;;5108611;27;46536;-80
2023/08/31 00:47:46;;;;;;;7.03;4.83;;;13.10;61.10;;;;;;5125121;27;47393;-80
2023/08/31 00:50:12;;;;;;;7.70;5.27;;;13.10;60.20;;;;;;5125006;27;45914;-81
2023/08/31 00:52:37;;;;;;;7.23;5.80;;;13.10;61.10;;;;;;5123453;27;46483;-81
2023/08/31 00:55:08;;;;;;;8.90;5.73;;;13.20;61.20;;;;;;5128092;27;46514;-81
2023/08/31 00:57:33;;;;;;;6.13;4.70;;;13.30;61.20;;;;;;5124693;27;47491;-81
2023/08/31 00:59:59;;;;;;;5.37;4.43;;;13.40;60.00;;;;;;5104989;27;46516;-82
2023/08/31 01:02:51;;;;;;;8.17;5.00;;;13.40;61.20;;;;;;5125373;27;46666;-81
2023/08/31 01:05:47;;;;;;;7.87;5.13;;;13.50;61.00;;;;;;5116406;27;46616;-81
2023/08/31 01:08:33;;;;;;;5.70;4.67;;;13.60;61.30;;;;;;5124259;27;46194;-80
2023/08/31 01:11:34;;;;;;;6.90;3.90;;;13.60;60.00;;;;;;5126666;27;46485;-80
2023/08/31 01:14:11;;;;;;;5.37;4.37;;;13.60;60.10;;;;;;5125236;27;47050;-81
2023/08/31 01:16:41;;;;;;;5.40;4.23;;;13.60;61.30;;;;;;5127302;27;46454;-80
2023/08/31 01:19:32;;;;;;;6.50;4.00;;;13.60;60.50;;;;;;5125965;27;46445;-80
2023/08/31 01:22:03;;;;;;;5.30;4.37;;;13.60;61.50;;;;;;5126965;27;46202;-79
2023/08/31 01:24:29;;;;;;;7.07;4.67;;;13.70;61.50;;;;;;5127018;27;47492;-81
2023/08/31 01:26:55;;;;;;;4.67;3.90;;;13.70;61.50;;;;;;5107231;27;46563;-79
2023/08/31 01:29:21;;;;;;;5.80;4.33;;;13.80;60.40;;;;;;5111348;27;48489;-81
2023/08/31 01:31:47;;;;;;;5.90;4.03;;;13.80;61.50;;;;;;5126784;27;47757;-79
2023/08/31 01:34:12;;;;;;;6.93;4.37;;;13.80;61.30;;;;;;5109868;27;46643;-80
2023/08/31 01:36:46;;;;;;;9.37;4.63;;;13.90;61.20;;;;;;5112730;27;46441;-80
2023/08/31 01:39:25;;;;;;;8.33;3.90;;;14.00;60.00;;;;;;5111196;27;48397;-81
2023/08/31 01:41:57;;;;;;;6.10;4.00;;;14.10;60.90;;;;;;5129157;27;46419;-79
2023/08/31 01:44:24;;;;;;;4.93;3.30;;;14.10;60.80;;;;;;5128147;27;46481;-79
2023/08/31 01:46:56;;;;;;;6.13;2.83;;;14.30;60.70;;;;;;5130960;27;46540;-80
2023/08/31 01:49:21;;;;;;;5.93;3.80;;;14.30;59.40;;;;;;5109349;27;49213;-79
2023/08/31 01:51:47;;;;;;;4.70;3.53;;;14.30;60.30;;;;;;5129318;27;46534;-82
2023/08/31 01:54:12;;;;;;;4.70;3.07;;;14.30;60.10;;;;;;5119208;27;46642;-81
2023/08/31 01:56:38;;;;;;;5.83;3.73;;;14.40;58.90;;;;;;5132342;27;46431;-81
2023/08/31 01:59:03;;;;;;;5.30;4.03;;;14.50;58.60;;;;;;5114019;27;47981;-81
2023/08/31 02:01:32;;;;;;;8.27;4.20;;;14.50;59.50;;;;;;5133458;27;46507;-82
2023/08/31 02:03:57;;;;;;;7.50;3.93;;;14.50;59.40;;;;;;5112587;27;46592;-82
2023/08/31 02:06:23;;;;;;;6.33;3.63;;;14.50;59.60;;;;;;5129995;27;45930;-79
2023/08/31 02:08:48;;;;;;;6.10;4.60;;;14.40;58.80;;;;;;5129242;27;46382;-79
2023/08/31 02:11:14;;;;;;;5.13;3.60;;;14.50;60.00;;;;;;5128340;27;46803;-79
2023/08/31 02:13:40;;;;;;;6.53;4.53;;;14.50;59.90;;;;;;5130584;27;46503;-79
2023/08/31 02:16:06;;;;;;;8.50;4.60;;;14.50;59.70;;;;;;5109959;27;46430;-78
2023/08/31 02:18:31;;;;;;;5.93;4.83;;;14.50;58.80;;;;;;5129124;27;46925;-79
2023/08/31 02:20:57;;;;;;;6.03;4.10;;;14.50;59.90;;;;;;5111694;27;46546;-79
2023/08/31 02:23:23;;;;;;;6.03;4.90;;;14.50;60.00;;;;;;5111574;27;46804;-80
2023/08/31 02:25:49;;;;;;;7.50;5.30;;;14.50;60.00;;;;;;5128213;27;46957;-79
2023/08/31 02:28:14;;;;;;;9.53;5.17;;;14.60;60.50;;;;;;5127927;27;46624;-79
2023/08/31 02:30:40;;;;;;;7.20;5.17;;;14.40;59.90;;;;;;5128234;27;46490;-79
2023/08/31 02:33:05;;;;;;;8.70;5.30;;;14.30;61.10;;;;;;5127112;27;46591;-80
2023/08/31 02:35:31;;;;;;;6.80;5.17;;;14.40;61.50;;;;;;5130700;27;46160;-80
2023/08/31 02:37:56;;;;;;;8.53;5.47;;;14.40;61.60;;;;;;5108912;27;47522;-78
2023/08/31 02:40:22;;;;;;;6.67;5.00;;;14.30;60.80;;;;;;5131088;27;46459;-80
2023/08/31 02:42:52;;;;;;;7.13;5.07;;;14.30;61.80;;;;;;5125098;27;47129;-79
2023/08/31 02:45:17;;;;;;;5.83;4.30;;;14.30;62.30;;;;;;5128457;27;46832;-79
2023/08/31 02:47:43;;;;;;;7.30;4.67;;;14.20;62.80;;;;;;5129185;27;46607;-82
2023/08/31 02:50:09;;;;;;;8.20;5.03;;;14.10;63.20;;;;;;5125723;27;46708;-81
2023/08/31 02:52:34;;;;;;;7.43;4.63;;;14.00;64.90;;;;;;5129371;27;45786;-82
2023/08/31 02:55:00;;;;;;;7.83;4.90;;;13.90;65.20;;;;;;5130833;27;46684;-81
2023/08/31 02:57:25;;;;;;;6.87;4.27;;;13.90;65.70;;;;;;5127001;27;46800;-80
2023/08/31 02:59:51;;;;;;;9.03;4.53;;;13.90;64.50;;;;;;5116441;27;47349;-80
2023/08/31 03:02:17;;;;;;;6.40;5.00;;;13.90;65.50;;;;;;5129514;27;46448;-82
2023/08/31 03:04:42;;;;;;;7.93;5.30;;;13.90;65.20;;;;;;5128533;27;46890;-82
2023/08/31 03:07:08;;;;;;;8.37;5.57;;;14.00;65.10;;;;;;5128965;27;46902;-81
2023/08/31 03:09:33;;;;;;;7.90;4.80;;;13.90;64.30;;;;;;5131413;27;46863;-82
2023/08/31 03:11:59;;;;;;;8.63;5.27;;;13.90;65.20;;;;;;5112293;27;46560;-82
2023/08/31 03:14:25;;;;;;;6.80;5.33;;;13.90;65.20;;;;;;5130251;27;46465;-82
2023/08/31 03:16:51;;;;;;;7.93;5.10;;;13.90;65.30;;;;;;5130420;27;47291;-79
2023/08/31 03:19:16;;;;;;;7.37;5.13;;;13.90;64.60;;;;;;5132278;27;46304;-82
2023/08/31 03:21:42;;;;;;;7.10;4.90;;;13.90;65.60;;;;;;5115884;27;46430;-82
2023/08/31 03:24:08;;;;;;;7.50;4.80;;;13.80;65.70;;;;;;5131710;27;46796;-82
2023/08/31 03:26:33;;;;;;;8.30;5.00;;;13.80;65.80;;;;;;5131337;27;47610;-82
2023/08/31 03:29:00;;;;;;;6.13;4.70;;;13.60;65.70;;;;;;5110375;27;46580;-81
2023/08/31 03:31:25;;;;;;;7.40;4.50;;;13.60;67.00;;;;;;5112140;27;46832;-81
2023/08/31 03:33:51;;;;;;;7.17;4.50;;;13.50;67.60;;;;;;5132608;27;46414;-81
2023/08/31 03:36:17;;;;;;;5.70;4.40;;;13.40;67.60;;;;;;5128835;27;46479;-81
2023/08/31 03:38:42;;;;;;;5.13;3.80;;;13.50;66.60;;;;;;5128361;27;47893;-81
2023/08/31 03:41:08;;;;;;;6.90;4.70;;;13.50;67.60;;;;;;5127588;27;46479;-82
2023/08/31 03:43:33;;;;;;;6.33;4.40;;;13.60;67.70;;;;;;5120089;27;46503;-81
2023/08/31 03:46:00;;;;;;;6.27;4.10;;;13.60;67.70;;;;;;5131431;27;47199;-80
2023/08/31 03:48:26;;;;;;;5.70;3.97;;;13.60;67.70;;;;;;5130923;27;46482;-82
2023/08/31 03:50:52;;;;;;;5.60;3.90;;;13.60;66.90;;;;;;5112934;27;46859;-82
2023/08/31 03:53:18;;;;;;;6.30;4.33;;;13.60;67.70;;;;;;5129432;27;45884;-82
2023/08/31 03:55:43;;;;;;;6.83;3.90;;;13.50;68.80;;;;;;5111287;27;48267;-83
2023/08/31 03:58:09;;;;;;;7.10;4.53;;;13.50;67.70;;;;;;5127820;27;46423;-83
2023/08/31 04:00:36;;;;;;;5.90;4.07;;;13.40;66.80;;;;;;5129570;27;46744;-82
2023/08/31 04:03:01;;;;;;;6.57;4.77;;;13.30;67.90;;;;;;5128552;27;46606;-81
2023/08/31 04:05:27;;;;;;;6.20;4.60;;;13.20;68.60;;;;;;5113066;27;48281;-81
2023/08/31 04:07:52;;;;;;;7.17;4.80;;;13.00;68.30;;;;;;5113374;27;46341;-82
2023/08/31 04:10:19;;;;;;;8.97;5.10;;;13.00;68.40;;;;;;5128179;27;46954;-82
2023/08/31 04:12:44;;;;;;;7.30;5.40;;;13.10;69.30;;;;;;5126568;27;46504;-84
2023/08/31 04:15:11;;;;;;;9.00;5.10;;;13.10;68.80;;;;;;5128615;27;46429;-82
2023/08/31 04:17:36;;;;;;;8.67;5.60;;;13.10;68.70;;;;;;5129480;27;46488;-81
2023/08/31 04:20:05;;;;;;;9.17;5.30;;;13.00;68.00;;;;;;5106561;27;46862;-81
2023/08/31 04:22:31;;;;;;;8.40;5.10;;;13.00;69.10;;;;;;5128286;27;46455;-81
2023/08/31 04:24:56;;;;;;;6.77;5.00;;;12.90;69.10;;;;;;5125935;27;45992;-81
2023/08/31 04:27:22;;;;;;;7.10;5.30;;;12.90;69.50;;;;;;5127620;27;46337;-81
2023/08/31 04:29:48;;;;;;;8.97;4.50;;;12.70;68.90;;;;;;5124894;27;46662;-80
2023/08/31 04:32:14;;;;;;;8.57;5.30;;;12.70;70.00;;;;;;5127771;27;46256;-82
2023/08/31 04:34:39;;;;;;;8.90;5.53;;;12.70;70.00;;;;;;5126622;27;46812;-81
2023/08/31 04:37:05;;;;;;;8.30;5.57;;;12.70;69.80;;;;;;5129298;27;45856;-82
2023/08/31 04:39:30;;;;;;;9.83;5.30;;;12.70;68.70;;;;;;5125696;27;46518;-81
2023/08/31 04:41:56;;;;;;;11.33;5.57;;;12.70;69.70;;;;;;5128690;27;46410;-81
2023/08/31 04:44:22;;;;;;;8.23;4.80;;;12.80;69.70;;;;;;5127120;27;46513;-80
2023/08/31 04:46:47;;;;;;;7.20;4.50;;;13.10;69.60;;;;;;5118041;27;46713;-81
2023/08/31 04:49:13;;;;;;;7.07;5.00;;;13.10;67.80;;;;;;5125831;27;46464;-82
2023/08/31 04:51:41;;;;;;;6.57;4.63;;;13.20;68.70;;;;;;5126845;27;46679;-83
2023/08/31 04:54:07;;;;;;;11.70;5.00;;;13.30;68.20;;;;;;5125409;27;46899;-82
2023/08/31 04:56:33;;;;;;;6.80;4.50;;;13.40;68.10;;;;;;5106479;27;46809;-81
2023/08/31 04:58:59;;;;;;;6.80;4.60;;;13.60;66.70;;;;;;5130362;27;46529;-82
2023/08/31 05:01:25;;;;;;;5.60;4.13;;;13.60;67.80;;;;;;5128335;27;46690;-80
2023/08/31 05:03:51;;;;;;;6.97;4.30;;;13.70;67.90;;;;;;5126339;27;47712;-80
2023/08/31 05:06:17;;;;;;;6.37;5.03;;;13.80;67.90;;;;;;5128149;27;47090;-81
2023/08/31 05:08:42;;;;;;;6.37;4.43;;;13.90;67.00;;;;;;5129372;27;46375;-81
2023/08/31 05:11:08;;;;;;;7.83;4.60;;;13.80;67.90;;;;;;5111618;27;46585;-81
2023/08/31 05:13:34;;;;;;;6.67;4.70;;;13.90;68.00;;;;;;5113051;27;48310;-82
2023/08/31 05:15:59;;;;;;;6.13;4.03;;;14.00;68.10;;;;;;5132530;27;46262;-80
2023/08/31 05:18:25;;;;;;;8.80;4.60;;;14.00;68.10;;;;;;5128116;27;45873;-82
2023/08/31 05:20:50;;;;;;;15.50;8.03;;;14.10;67.10;;;;;;5126411;27;46719;-79
2023/08/31 05:23:16;;;;;;;5.67;4.67;;;14.20;68.30;;;;;;5106558;27;49002;-80
2023/08/31 05:25:43;;;;;;;10.23;4.00;;;14.30;68.10;;;;;;5108394;27;46412;-82
2023/08/31 05:28:08;;;;;;;5.70;4.03;;;14.30;67.90;;;;;;5127941;27;46485;-82
2023/08/31 05:30:34;;;;;;;5.40;3.60;;;14.60;67.00;;;;;;5125346;27;46922;-81
2023/08/31 05:33:00;;;;;;;23.63;4.50;;;14.60;68.30;;;;;;5128939;27;46476;-83
2023/08/31 05:35:26;;;;;;;5.80;3.40;;;14.50;68.50;;;;;;5128545;27;47070;-80
2023/08/31 05:37:52;;;;;;;29.53;13.83;;;14.50;68.60;;;;;;5106879;27;46832;-81
2023/08/31 05:40:18;;;;;;;6.13;3.83;;;14.50;67.60;;;;;;5128645;27;46024;-80
2023/08/31 05:42:44;;;;;;;10.90;5.60;;;14.50;68.60;;;;;;5123237;27;46479;-80
2023/08/31 05:45:09;;;;;;;6.20;4.03;;;14.50;68.60;;;;;;5124160;27;45869;-81
2023/08/31 05:47:35;;;;;;;5.00;3.80;;;14.50;68.60;;;;;;5127995;27;46756;-81
2023/08/31 05:50:01;;;;;;;5.30;3.73;;;14.60;67.40;;;;;;5126904;27;46453;-80
2023/08/31 05:52:27;;;;;;;5.77;3.40;;;14.60;68.40;;;;;;5105618;27;48855;-79
2023/08/31 05:54:53;;;;;;;8.50;3.97;;;14.70;68.00;;;;;;5129653;27;46468;-79
2023/08/31 05:57:20;;;;;;;3.93;2.70;;;15.20;67.60;;;;;;5127905;27;46723;-80
2023/08/31 05:59:47;;;;;;;7.13;3.40;;;15.30;67.00;;;;;;5108747;27;46525;-81
2023/08/31 06:02:12;;;;;;;4.23;3.10;;;15.30;68.20;;;;;;5126187;27;47195;-81
2023/08/31 06:04:38;;;;;;;5.60;3.60;;;15.20;67.80;;;;;;5127214;27;46511;-79
2023/08/31 06:07:04;;;;;;;5.83;3.10;;;15.20;67.90;;;;;;5129868;27;46798;-81
2023/08/31 06:09:29;;;;;;;6.47;3.27;;;15.10;67.00;;;;;;5126445;27;45873;-82
2023/08/31 06:11:55;;;;;;;4.70;2.70;;;15.10;66.80;;;;;;5109477;27;47943;-82
2023/08/31 06:14:20;;;;;;;4.03;2.60;;;15.10;67.60;;;;;;5112399;27;46994;-83
2023/08/31 06:16:46;;;;;;;5.03;2.77;;;15.20;67.40;;;;;;5124754;27;46931;-81
2023/08/31 06:19:15;;;;;;;6.27;2.60;;;15.10;66.10;;;;;;5119616;27;46906;-81
2023/08/31 06:21:41;;;;;;;11.63;3.67;;;15.10;67.10;;;;;;5121624;27;47250;-84
2023/08/31 06:24:09;;;;;;;5.17;2.73;;;15.10;67.40;;;;;;5124290;27;46678;-82
2023/08/31 06:26:35;;;;;;;6.20;2.80;;;15.10;67.40;;;;;;5125643;27;45814;-81
2023/08/31 06:29:03;;;;;;;4.67;2.83;;;15.50;65.20;;;;;;5126524;27;46703;-83
2023/08/31 06:31:29;;;;;;;3.97;2.63;;;15.60;66.30;;;;;;5125005;27;46780;-84
2023/08/31 06:33:54;;;;;;;6.70;2.73;;;15.90;65.50;;;;;;5130430;27;46646;-80
2023/08/31 06:36:20;;;;;;;5.30;2.57;;;16.10;65.40;;;;;;5129116;27;46467;-83
2023/08/31 06:38:46;;;;;;;6.60;2.30;;;15.90;65.00;;;;;;5130052;27;46486;-83
2023/08/31 06:41:11;;;;;;;5.90;2.80;;;15.90;65.80;;;;;;5117199;27;49768;-84
2023/08/31 06:43:37;;;;;;;3.83;2.50;;;15.90;66.30;;;;;;5127988;27;46410;-80
2023/08/31 06:46:03;;;;;;;5.30;3.23;;;15.70;66.10;;;;;;5127906;27;46541;-82
2023/08/31 06:48:28;;;;;;;4.10;2.80;;;15.80;66.20;;;;;;5110855;27;46085;-83
2023/08/31 06:50:55;;;;;;;6.37;2.67;;;15.70;64.80;;;;;;5128190;27;46448;-81
2023/08/31 06:53:21;;;;;;;9.10;2.93;;;15.80;65.90;;;;;;5124107;27;46734;-80
2023/08/31 06:55:47;;;;;;;4.20;2.63;;;16.00;65.50;;;;;;5130070;27;46505;-82
2023/08/31 06:58:12;;;;;;;5.90;2.77;;;16.10;65.00;;;;;;5126738;27;46463;-81
2023/08/31 07:00:38;;;;;;;4.60;2.60;;;16.20;63.40;;;;;;5128525;27;46517;-82
2023/08/31 07:03:05;;;;;;;3.97;2.50;;;16.40;64.00;;;;;;5129309;27;46691;-82
2023/08/31 07:05:35;;;;;;;6.40;2.70;;;16.30;63.90;;;;;;5111101;27;46742;-80
2023/08/31 07:08:02;;;;;;;8.47;2.27;;;16.20;64.40;;;;;;5125357;27;46495;-84
2023/08/31 07:10:28;;;;;;;6.40;2.77;;;16.10;63.50;;;;;;5126159;27;46995;-82
2023/08/31 07:12:54;;;;;;;8.33;2.70;;;16.20;64.60;;;;;;5127649;27;46545;-79
2023/08/31 07:15:19;;;;;;;6.23;2.47;;;16.40;64.00;;;;;;5108793;27;49100;-80
2023/08/31 07:17:45;;;;;;;4.60;2.63;;;16.60;63.80;;;;;;5127106;27;46494;-82
2023/08/31 07:20:12;;;;;;;4.53;2.40;;;16.70;62.20;;;;;;5125185;27;46923;-80
2023/08/31 07:22:38;;;;;;;6.93;2.90;;;16.90;63.40;;;;;;5126009;27;46479;-80
2023/08/31 07:25:05;;;;;;;4.97;2.30;;;17.30;62.40;;;;;;5129463;27;46740;-83
2023/08/31 07:27:31;;;;;;;6.23;2.10;;;17.90;58.90;;;;;;5128030;27;46394;-81
2023/08/31 07:29:57;;;;;;;10.23;2.33;;;18.20;53.70;;;;;;5108043;27;49115;-82
2023/08/31 07:32:22;;;;;;;6.70;2.47;;;18.10;54.50;;;;;;5108895;27;46745;-82
2023/08/31 07:34:48;;;;;;;5.93;2.57;;;17.90;54.10;;;;;;5131407;27;46483;-80
2023/08/31 07:37:13;;;;;;;5.37;2.27;;;17.90;55.60;;;;;;5130919;27;46765;-81
2023/08/31 07:39:39;;;;;;;7.17;2.87;;;17.50;53.70;;;;;;5114966;27;47651;-84
2023/08/31 07:42:06;;;;;;;5.17;2.40;;;17.50;55.00;;;;;;5128209;27;46523;-82
2023/08/31 07:44:31;;;;;;;8.83;2.87;;;17.90;54.40;;;;;;5125819;27;46909;-82
2023/08/31 07:46:57;;;;;;;4.13;2.40;;;18.30;52.70;;;;;;5121249;27;45896;-82
2023/08/31 07:49:22;;;;;;;4.67;2.10;;;18.50;51.00;;;;;;5107591;27;47951;-82
2023/08/31 07:51:48;;;;;;;8.07;2.40;;;18.80;49.80;;;;;;5122891;27;46493;-82
2023/08/31 07:54:21;;;;;;;8.10;4.07;;;19.10;48.10;;;;;;5126026;27;46420;-82
2023/08/31 07:56:47;;;;;;;7.80;3.00;;;19.20;46.90;;;;;;5129742;27;46893;-81
2023/08/31 07:59:13;;;;;;;6.30;2.90;;;19.20;45.00;;;;;;5127822;27;46811;-82
2023/08/31 08:01:38;;;;;;;4.13;2.63;;;19.10;46.20;;;;;;5128808;27;46591;-79
2023/08/31 08:04:04;;;;;;;4.60;2.47;;;19.20;46.00;;;;;;5128707;27;46507;-80
2023/08/31 08:06:29;;;;;;;5.77;2.37;;;19.20;45.50;;;;;;5126579;27;47017;-84
2023/08/31 08:08:55;;;;;;;5.70;2.60;;;19.30;41.80;;;;;;5127256;27;46404;-79
2023/08/31 08:11:22;;;;;;;6.60;2.33;;;19.30;42.90;;;;;;5128447;27;46415;-83
2023/08/31 08:13:47;;;;;;;5.60;1.80;;;19.40;42.70;;;;;;5129892;27;46578;-79
2023/08/31 08:16:14;;;;;;;6.83;2.87;;;19.40;42.20;;;;;;5127528;27;46767;-80
2023/08/31 08:18:40;;;;;;;7.13;2.40;;;18.90;39.70;;;;;;5127269;27;46441;-79
2023/08/31 08:21:05;;;;;;;8.00;2.37;;;18.90;40.70;;;;;;5132242;27;46229;-79
2023/08/31 08:23:31;;;;;;;10.93;2.73;;;18.70;41.30;;;;;;5122117;27;46762;-83
2023/08/31 08:25:59;;;;;;;10.07;2.50;;;18.70;40.90;;;;;;5108858;27;45902;-79
2023/08/31 08:28:25;;;;;;;9.17;2.77;;;18.90;40.70;;;;;;5128481;27;46669;-78
2023/08/31 08:30:50;;;;;;;4.97;2.33;;;19.20;38.30;;;;;;5127135;27;46962;-79
2023/08/31 08:33:16;;;;;;;4.63;2.50;;;19.30;39.10;;;;;;5127904;27;46810;-81
2023/08/31 08:35:41;;;;;;;7.23;2.50;;;19.30;38.40;;;;;;5113420;27;46760;-83
2023/08/31 08:38:07;;;;;;;8.10;2.60;;;19.60;38.00;;;;;;5129088;27;46455;-81
2023/08/31 08:40:34;;;;;;;5.37;2.50;;;19.30;35.50;;;;;;5126075;27;46494;-83
2023/08/31 08:43:06;;;;;;;6.80;2.33;;;19.50;37.30;;;;;;5131157;27;46457;-83
2023/08/31 08:45:38;;;;;;;10.80;2.70;;;19.50;36.80;;;;;;5129548;27;46388;-79
2023/08/31 08:48:07;;;;;;;3.63;1.90;;;19.60;36.70;;;;;;5128842;27;46618;-80
2023/08/31 08:50:33;;;;;;;8.47;2.43;;;19.60;34.90;;;;;;5109709;27;46219;-78
2023/08/31 08:53:01;;;;;;;6.80;2.53;;;19.30;36.60;;;;;;5125489;27;46855;-79
2023/08/31 08:55:27;;;;;;;4.40;2.33;;;19.10;37.50;;;;;;5119911;27;46417;-80
2023/08/31 08:57:53;;;;;;;4.57;2.20;;;18.90;37.90;;;;;;5127541;27;47558;-80
2023/08/31 09:00:19;;;;;;;9.60;3.17;;;18.70;37.00;;;;;;5111477;27;46489;-79
2023/08/31 09:02:46;;;;;;;6.07;2.60;;;18.60;38.50;;;;;;5110153;27;46391;-85
2023/08/31 09:05:11;;;;;;;4.33;2.10;;;18.50;38.80;;;;;;5123685;27;46568;-81
2023/08/31 09:07:38;;;;;;;4.83;2.57;;;18.50;38.70;;;;;;5127148;27;46935;-81
2023/08/31 09:10:04;;;;;;;4.80;2.20;;;18.40;38.90;;;;;;5128391;27;47276;-85
2023/08/31 09:12:30;;;;;;;5.90;2.53;;;18.10;39.40;;;;;;5127282;27;46176;-83
2023/08/31 09:15:06;;;;;;;5.03;1.93;;;18.00;39.80;;;;;;5126008;27;46834;-81
2023/08/31 09:17:40;;;;;;;6.30;2.53;;;18.00;40.00;;;;;;5127345;27;47124;-78
2023/08/31 09:20:06;;;;;;;4.20;2.20;;;17.70;39.50;;;;;;5127754;27;46561;-82
2023/08/31 09:22:33;;;;;;;6.67;2.50;;;17.50;41.10;;;;;;5111645;27;46708;-82
2023/08/31 09:24:59;;;;;;;4.13;2.40;;;17.30;41.70;;;;;;5117539;27;46403;-82
2023/08/31 09:27:24;;;;;;;6.90;2.93;;;17.30;41.90;;;;;;5128772;27;46336;-82
2023/08/31 09:29:53;;;;;;;6.20;2.60;;;17.30;40.10;;;;;;5123431;27;46407;-82
2023/08/31 09:32:19;;;;;;;5.30;2.13;;;17.30;41.10;;;;;;5124232;27;46406;-85
2023/08/31 09:34:45;;;;;;;7.37;2.30;;;17.50;41.10;;;;;;5126405;27;46464;-83
2023/08/31 09:37:11;;;;;;;5.07;1.93;;;17.70;39.00;;;;;;5124479;27;46968;-85
2023/08/31 09:39:37;;;;;;;5.67;2.23;;;17.60;38.50;;;;;;5123495;27;46718;-81
2023/08/31 09:42:03;;;;;;;7.40;2.33;;;17.50;39.00;;;;;;5129659;27;46741;-82
2023/08/31 09:44:29;;;;;;;8.57;2.60;;;17.40;37.40;;;;;;5107623;27;47080;-81
2023/08/31 09:46:54;;;;;;;7.83;2.43;;;17.40;38.10;;;;;;5129309;27;47158;-81
2023/08/31 09:49:22;;;;;;;4.83;2.00;;;17.40;37.70;;;;;;5125922;27;46423;-81
2023/08/31 09:51:49;;;;;;;9.07;2.47;;;17.50;37.30;;;;;;5127021;27;46631;-80
2023/08/31 09:54:19;;;;;;;13.60;2.30;;;17.70;36.50;;;;;;5107419;27;46501;-84
2023/08/31 09:56:46;;;;;;;8.07;2.63;;;17.50;36.50;;;;;;5125495;27;46469;-80
2023/08/31 09:59:13;;;;;;;6.37;2.27;;;17.30;36.10;;;;;;5129618;27;46542;-83
2023/08/31 10:01:39;;;;;;;7.40;2.50;;;17.20;36.70;;;;;;5109408;27;46390;-80
2023/08/31 10:04:08;;;;;;;10.10;2.23;;;17.10;36.30;;;;;;5131657;27;46535;-81
2023/08/31 10:06:38;;;;;;;7.57;2.43;;;17.10;36.60;;;;;;5113467;27;49586;-80
2023/08/31 10:09:04;;;;;;;6.63;2.40;;;17.00;36.10;;;;;;5113518;27;46755;-81
2023/08/31 10:11:31;;;;;;;8.43;2.47;;;17.10;37.10;;;;;;5135146;27;46404;-80
2023/08/31 10:13:58;;;;;;;9.17;2.80;;;17.50;37.10;;;;;;5131606;27;46487;-82
2023/08/31 10:16:27;;;;;;;5.17;2.50;;;17.50;35.40;;;;;;5134540;27;46242;-79
2023/08/31 10:18:53;;;;;;;6.70;2.50;;;17.70;35.40;;;;;;5129569;27;46468;-83
2023/08/31 10:21:19;;;;;;;12.93;2.83;;;17.70;36.30;;;;;;5114815;27;46468;-84
2023/08/31 10:23:49;;;;;;;5.77;2.30;;;18.00;36.70;;;;;;5111625;27;46553;-81
2023/08/31 10:26:29;;;;;;;4.53;2.30;;;18.10;36.40;;;;;;5131572;27;47020;-81
2023/08/31 10:28:56;;;;;;;4.57;2.00;;;18.70;35.20;;;;;;5127195;27;46334;-78
2023/08/31 10:31:22;;;;;;;4.80;2.00;;;19.30;33.40;;;;;;5131252;27;46559;-82
2023/08/31 10:33:58;;;;;;;5.60;2.20;;;19.30;30.80;;;;;;5130024;27;45864;-80
2023/08/31 10:36:34;;;;;;;9.93;2.53;;;19.30;29.00;;;;;;5115463;27;48182;-83
2023/08/31 10:39:05;;;;;;;5.33;2.40;;;19.50;28.90;;;;;;5132903;27;46938;-84
2023/08/31 10:41:37;;;;;;;4.43;2.07;;;19.40;28.10;;;;;;5127349;27;46964;-84
2023/08/31 10:44:18;;;;;;;6.10;2.13;;;19.50;28.00;;;;;;5130646;27;47729;-82
2023/08/31 10:46:44;;;;;;;5.40;2.20;;;19.50;27.40;;;;;;5129919;27;46481;-78
2023/08/31 10:49:09;;;;;;;5.77;2.20;;;19.50;27.60;;;;;;5128046;27;46510;-80
2023/08/31 10:51:36;;;;;;;6.13;2.07;;;19.60;26.90;;;;;;5128269;27;46492;-82
2023/08/31 10:54:09;;;;;;;7.67;2.70;;;19.70;26.90;;;;;;5130132;27;46601;-82
2023/08/31 10:56:51;;;;;;;7.60;3.00;;;19.80;26.70;;;;;;5129625;27;46668;-81
2023/08/31 10:59:17;;;;;;;5.80;2.20;;;19.40;26.60;;;;;;5127504;27;46485;-82
2023/08/31 11:01:53;;;;;;;6.43;2.13;;;19.30;27.60;;;;;;5129265;27;46552;-79
2023/08/31 11:04:23;;;;;;;5.57;2.40;;;18.60;28.30;;;;;;5112135;27;46396;-86
2023/08/31 11:06:49;;;;;;;7.30;2.60;;;18.60;29.20;;;;;;5128347;27;46650;-79
2023/08/31 11:09:20;;;;;;;5.70;2.27;;;18.30;29.50;;;;;;5126615;27;46440;-84
2023/08/31 11:11:46;;;;;;;5.43;2.50;;;18.40;29.60;;;;;;5126884;27;45932;-79
2023/08/31 11:14:12;;;;;;;5.93;2.63;;;18.60;29.40;;;;;;5132334;27;46526;-81
2023/08/31 11:16:44;;;;;;;11.67;2.97;;;18.90;29.20;;;;;;5131349;27;47739;-81
2023/08/31 11:19:09;;;;;;;6.13;2.23;;;19.20;29.10;;;;;;5112588;27;46486;-84
2023/08/31 11:21:37;;;;;;;9.30;2.70;;;19.40;29.50;;;;;;5128569;27;46715;-83
2023/08/31 11:24:03;;;;;;;6.87;3.27;;;19.30;29.40;;;;;;5131218;27;46585;-79
2023/08/31 11:26:31;;;;;;;6.97;2.70;;;19.20;30.00;;;;;;5128969;27;47290;-80
2023/08/31 11:28:57;;;;;;;6.60;2.70;;;19.50;30.00;;;;;;5127914;27;46515;-78
2023/08/31 11:31:25;;;;;;;7.67;2.50;;;19.50;28.50;;;;;;5131890;27;46479;-79
2023/08/31 11:33:51;;;;;;;7.80;2.73;;;19.30;27.50;;;;;;5130970;27;46766;-82
2023/08/31 11:36:17;;;;;;;5.20;2.20;;;19.40;26.60;;;;;;5129410;27;46880;-80
2023/08/31 11:38:44;;;;;;;6.30;2.20;;;19.20;25.10;;;;;;5127227;27;46541;-80
2023/08/31 11:41:09;;;;;;;5.50;2.30;;;19.30;26.10;;;;;;5133128;27;46422;-81
2023/08/31 11:43:37;;;;;;;6.13;2.53;;;19.20;26.00;;;;;;5108282;27;46577;-81
2023/08/31 11:46:04;;;;;;;9.10;2.67;;;19.10;26.30;;;;;;5109463;27;46624;-81
2023/08/31 11:48:31;;;;;;;11.47;2.33;;;19.20;26.30;;;;;;5110841;27;46464;-81
2023/08/31 11:50:57;;;;;;;4.20;2.40;;;19.00;26.30;;;;;;5110911;27;46704;-83
2023/08/31 11:53:22;;;;;;;7.03;2.00;;;19.00;26.20;;;;;;5124982;27;47095;-80
2023/08/31 11:55:53;;;;;;;5.00;2.07;;;19.00;26.10;;;;;;5128621;27;47258;-81
2023/08/31 11:58:21;;;;;;;6.23;2.37;;;19.20;25.20;;;;;;5120045;27;46507;-83
2023/08/31 12:01:07;;;;;;;5.80;1.90;;;19.50;24.10;;;;;;5128000;27;46394;-79
2023/08/31 12:03:44;;;;;;;5.23;2.43;;;19.50;24.00;;;;;;5129008;27;46848;-80
2023/08/31 12:06:09;;;;;;;7.60;2.40;;;19.50;24.20;;;;;;5112238;27;49160;-80
2023/08/31 12:08:37;;;;;;;6.90;2.50;;;19.70;24.60;;;;;;5126734;27;46461;-80
2023/08/31 12:11:02;;;;;;;5.90;2.33;;;19.50;24.30;;;;;;5128162;27;46592;-80
2023/08/31 12:13:28;;;;;;;7.70;2.47;;;19.50;23.70;;;;;;5130660;27;46508;-84
2023/08/31 12:15:55;;;;;;;8.70;2.50;;;20.00;23.80;;;;;;5128696;27;46711;-83
2023/08/31 12:18:21;;;;;;;8.40;3.07;;;20.10;23.30;;;;;;5127898;27;46432;-83
2023/08/31 12:20:50;;;;;;;7.67;2.37;;;20.00;21.60;;;;;;5123115;27;46294;-84
2023/08/31 12:23:16;;;;;;;10.37;2.13;;;20.00;22.50;;;;;;5125030;27;46491;-85
2023/08/31 12:26:01;;;;;;;4.70;2.27;;;19.80;22.20;;;;;;5111570;27;48299;-80
2023/08/31 12:28:26;;;;;;;6.40;1.90;;;19.70;22.20;;;;;;5108839;27;47004;-83
2023/08/31 12:30:56;;;;;;;6.90;2.77;;;19.70;21.40;;;;;;5126168;27;45992;-81
2023/08/31 12:33:22;;;;;;;6.73;2.40;;;19.50;22.10;;;;;;5109787;27;47460;-80
2023/08/31 12:35:48;;;;;;;7.70;2.60;;;19.30;21.90;;;;;;5127744;27;47140;-78
2023/08/31 12:38:14;;;;;;;5.53;2.43;;;19.30;22.30;;;;;;5131205;27;46617;-81
2023/08/31 12:40:39;;;;;;;4.07;2.00;;;19.20;21.30;;;;;;5115622;27;46520;-82
2023/08/31 12:43:06;;;;;;;6.60;2.20;;;19.30;22.60;;;;;;5113806;27;46379;-81
2023/08/31 12:45:31;;;;;;;7.30;2.30;;;19.50;22.50;;;;;;5128408;27;46935;-79